createdAt,value
2023-01-15T00:00:21.773Z,7.40
2023-01-15T00:02:49.865Z,7.40
2023-01-15T00:05:19.259Z,7.40
2023-01-15T00:07:47.401Z,7.40
2023-01-15T00:10:15.425Z,7.40
2023-01-15T00:12:43.437Z,7.50
2023-01-15T00:15:14.455Z,7.50
2023-01-15T00:17:42.602Z,7.50
2023-01-15T00:20:12.157Z,7.50
2023-01-15T00:22:41.662Z,7.50
2023-01-15T00:25:29.210Z,7.50
2023-01-15T00:27:57.361Z,7.50
2023-01-15T00:30:25.457Z,7.60
2023-01-15T00:32:53.509Z,7.60
2023-01-15T00:35:25.026Z,7.60
2023-01-15T00:37:54.447Z,7.60
2023-01-15T00:40:22.608Z,7.70
2023-01-15T00:42:54.330Z,7.70
2023-01-15T00:45:23.188Z,7.70
2023-01-15T00:47:51.590Z,7.70
2023-01-15T00:50:19.830Z,7.80
2023-01-15T00:52:47.882Z,7.70
2023-01-15T00:55:17.369Z,7.80
2023-01-15T00:57:45.438Z,7.80
2023-01-15T01:00:14.413Z,7.80
2023-01-15T01:02:42.538Z,7.80
2023-01-15T01:05:10.924Z,7.80
2023-01-15T01:07:38.919Z,7.80
2023-01-15T01:10:09.040Z,7.90
2023-01-15T01:12:39.220Z,7.90
2023-01-15T01:15:09.904Z,7.90
2023-01-15T01:17:38.727Z,7.90
2023-01-15T01:20:07.666Z,8.00
2023-01-15T01:22:35.735Z,8.00
2023-01-15T01:25:04.148Z,8.00
2023-01-15T01:27:32.607Z,8.00
2023-01-15T01:30:02.069Z,7.90
2023-01-15T01:32:30.104Z,7.90
2023-01-15T01:34:58.092Z,7.90
2023-01-15T01:37:26.277Z,7.90
2023-01-15T01:39:55.172Z,7.90
2023-01-15T01:42:23.604Z,8.00
2023-01-15T01:45:11.806Z,8.00
2023-01-15T01:47:40.225Z,8.00
2023-01-15T01:50:12.924Z,8.00
2023-01-15T01:52:46.163Z,8.00
2023-01-15T01:55:17.649Z,8.00
2023-01-15T01:57:48.062Z,8.00
2023-01-15T02:00:18.070Z,8.00
2023-01-15T02:02:48.998Z,8.00
2023-01-15T02:05:24.595Z,8.00
2023-01-15T02:07:52.668Z,8.00
2023-01-15T02:10:20.844Z,8.00
2023-01-15T02:12:58.345Z,8.00
2023-01-15T02:15:35.905Z,8.00
2023-01-15T02:18:11.989Z,7.90
2023-01-15T02:20:45.662Z,7.90
2023-01-15T02:23:53.648Z,7.90
2023-01-15T02:26:39.757Z,7.90
2023-01-15T02:29:11.480Z,7.90
2023-01-15T02:31:44.454Z,7.90
2023-01-15T02:34:17.034Z,7.80
2023-01-15T02:36:50.052Z,7.80
2023-01-15T02:39:26.148Z,7.80
2023-01-15T02:42:02.698Z,7.80
2023-01-15T02:44:39.114Z,7.80
2023-01-15T02:47:08.331Z,7.80
2023-01-15T02:49:37.693Z,7.90
2023-01-15T02:52:11.104Z,8.00
2023-01-15T02:54:45.055Z,8.00
2023-01-15T02:57:17.554Z,8.00
2023-01-15T02:59:53.342Z,8.00
2023-01-15T03:02:27.650Z,8.10
2023-01-15T03:05:01.854Z,8.10
2023-01-15T03:07:37.399Z,8.10
2023-01-15T03:10:07.465Z,8.10
2023-01-15T03:12:59.285Z,8.20
2023-01-15T03:15:53.421Z,8.20
2023-01-15T03:18:23.428Z,8.20
2023-01-15T03:20:58.741Z,8.20
2023-01-15T03:23:28.293Z,8.20
2023-01-15T03:25:56.357Z,8.20
2023-01-15T03:28:32.492Z,8.10
2023-01-15T03:31:01.020Z,8.10
2023-01-15T03:33:31.059Z,8.10
2023-01-15T03:36:01.900Z,8.20
2023-01-15T03:38:46.854Z,8.20
2023-01-15T03:41:31.030Z,8.20
2023-01-15T03:44:12.991Z,8.30
2023-01-15T03:47:07.360Z,8.20
2023-01-15T03:49:43.209Z,8.30
2023-01-15T03:52:28.559Z,8.20
2023-01-15T03:55:06.103Z,8.30
2023-01-15T03:57:39.873Z,8.30
2023-01-15T04:00:14.565Z,8.20
2023-01-15T04:02:50.874Z,8.30
2023-01-15T04:05:20.126Z,8.40
2023-01-15T04:07:51.107Z,8.30
2023-01-15T04:10:19.978Z,8.30
2023-01-15T04:12:49.716Z,8.40
2023-01-15T04:15:20.749Z,8.30
2023-01-15T04:17:48.788Z,8.30
2023-01-15T04:20:17.899Z,8.40
2023-01-15T04:22:47.146Z,8.40
2023-01-15T04:25:15.188Z,8.40
2023-01-15T04:27:43.220Z,8.40
2023-01-15T04:30:12.684Z,8.40
2023-01-15T04:32:42.050Z,8.40
2023-01-15T04:35:10.445Z,8.40
2023-01-15T04:37:38.396Z,8.50
2023-01-15T04:40:08.066Z,8.50
2023-01-15T04:42:53.368Z,8.50
2023-01-15T04:45:21.430Z,8.50
2023-01-15T04:47:50.761Z,8.50
2023-01-15T04:50:18.949Z,8.50
2023-01-15T04:52:47.515Z,8.50
2023-01-15T04:55:15.686Z,8.60
2023-01-15T04:57:43.712Z,8.50
2023-01-15T05:00:12.957Z,8.60
2023-01-15T05:02:40.951Z,8.60
2023-01-15T05:05:10.861Z,8.50
2023-01-15T05:07:38.859Z,8.50
2023-01-15T05:10:07.686Z,8.60
2023-01-15T05:12:35.695Z,8.60
2023-01-15T05:15:03.794Z,8.60
2023-01-15T05:17:33.688Z,8.60
2023-01-15T05:20:01.722Z,8.60
2023-01-15T05:22:31.049Z,8.70
2023-01-15T05:24:59.094Z,8.70
2023-01-15T05:27:27.126Z,8.70
2023-01-15T05:29:55.110Z,8.70
2023-01-15T05:32:23.077Z,8.60
2023-01-15T05:34:51.089Z,8.60
2023-01-15T05:37:19.086Z,8.60
2023-01-15T05:39:48.581Z,8.70
2023-01-15T05:42:16.591Z,8.60
2023-01-15T05:44:44.756Z,8.60
2023-01-15T05:47:12.723Z,8.60
2023-01-15T05:49:40.763Z,8.70
2023-01-15T05:52:09.192Z,8.60
2023-01-15T05:54:37.900Z,8.60
2023-01-15T05:57:07.202Z,8.70
2023-01-15T05:59:35.255Z,8.70
2023-01-15T06:02:03.265Z,8.60
2023-01-15T06:04:31.615Z,8.60
2023-01-15T06:06:59.708Z,8.60
2023-01-15T06:09:29.518Z,8.60
2023-01-15T06:11:58.222Z,8.60
2023-01-15T06:14:27.662Z,8.60
2023-01-15T06:16:55.772Z,8.60
2023-01-15T06:19:23.896Z,8.60
2023-01-15T06:21:51.935Z,8.60
2023-01-15T06:24:20.795Z,8.50
2023-01-15T06:26:48.897Z,8.60
2023-01-15T06:29:18.929Z,8.50
2023-01-15T06:31:49.536Z,8.60
2023-01-15T06:34:17.907Z,8.60
2023-01-15T06:36:45.884Z,8.60
2023-01-15T06:39:13.939Z,8.50
2023-01-15T06:41:59.861Z,8.40
2023-01-15T06:44:45.600Z,8.30
2023-01-15T06:47:23.841Z,8.20
2023-01-15T06:49:54.050Z,8.00
2023-01-15T06:52:22.613Z,7.90
2023-01-15T06:54:50.671Z,7.80
2023-01-15T06:57:19.764Z,7.70
2023-01-15T06:59:47.962Z,7.60
2023-01-15T07:02:18.294Z,7.50
2023-01-15T07:04:46.686Z,7.40
2023-01-15T07:07:14.906Z,7.30
2023-01-15T07:09:42.939Z,7.30
2023-01-15T07:12:11.406Z,7.10
2023-01-15T07:14:39.494Z,7.10
2023-01-15T07:17:07.807Z,7.00
2023-01-15T07:19:37.275Z,7.00
2023-01-15T07:22:05.675Z,6.90
2023-01-15T07:24:34.491Z,6.90
2023-01-15T07:27:02.928Z,6.80
2023-01-15T07:29:31.717Z,6.80
2023-01-15T07:32:00.664Z,6.70
2023-01-15T07:34:28.773Z,6.70
2023-01-15T07:36:58.091Z,6.70
2023-01-15T07:39:26.108Z,6.80
2023-01-15T07:42:11.620Z,6.80
2023-01-15T07:44:57.130Z,6.80
2023-01-15T07:47:44.568Z,6.80
2023-01-15T07:50:14.701Z,6.80
2023-01-15T07:52:44.280Z,6.70
2023-01-15T07:55:13.560Z,6.70
2023-01-15T07:57:42.158Z,6.70
2023-01-15T08:00:15.733Z,6.70
2023-01-15T08:02:44.331Z,6.70
2023-01-15T08:05:12.938Z,6.70
2023-01-15T08:07:42.007Z,6.70
2023-01-15T08:10:13.895Z,6.80
2023-01-15T08:12:59.771Z,6.80
2023-01-15T08:15:28.057Z,6.70
2023-01-15T08:17:56.090Z,6.70
2023-01-15T08:20:26.127Z,6.70
2023-01-15T08:22:54.581Z,6.70
2023-01-15T08:25:25.701Z,6.60
2023-01-15T08:27:54.706Z,6.60
2023-01-15T08:30:24.443Z,6.60
2023-01-15T08:32:52.869Z,6.50
2023-01-15T08:35:21.069Z,6.50
2023-01-15T08:37:49.420Z,6.40
2023-01-15T08:40:17.805Z,6.40
2023-01-15T08:42:47.241Z,6.30
2023-01-15T08:45:15.535Z,6.40
2023-01-15T08:47:43.670Z,6.30
2023-01-15T08:50:12.807Z,6.20
2023-01-15T08:52:41.405Z,6.20
2023-01-15T08:55:09.989Z,6.20
2023-01-15T08:57:38.790Z,6.20
2023-01-15T09:00:10.433Z,6.20
2023-01-15T09:02:38.493Z,6.10
2023-01-15T09:05:07.333Z,6.00
2023-01-15T09:07:37.248Z,5.80
2023-01-15T09:10:06.054Z,5.70
2023-01-15T09:12:34.212Z,5.60
2023-01-15T09:15:03.224Z,5.50
2023-01-15T09:17:34.029Z,5.40
2023-01-15T09:20:03.310Z,5.30
2023-01-15T09:22:31.663Z,5.20
2023-01-15T09:25:00.098Z,5.20
2023-01-15T09:27:28.733Z,5.10
2023-01-15T09:29:57.381Z,5.10
2023-01-15T09:32:25.587Z,5.10
2023-01-15T09:34:55.187Z,5.10
2023-01-15T09:37:23.450Z,5.00
2023-01-15T09:39:51.544Z,5.00
2023-01-15T09:42:36.107Z,5.00
2023-01-15T09:45:22.077Z,4.90
2023-01-15T09:48:02.213Z,4.90
2023-01-15T09:50:42.217Z,4.90
2023-01-15T09:53:22.823Z,4.90
2023-01-15T09:55:53.150Z,4.90
2023-01-15T09:58:24.546Z,4.90
2023-01-15T10:00:53.440Z,4.90
2023-01-15T10:03:33.239Z,4.90
2023-01-15T10:06:11.351Z,4.90
2023-01-15T10:08:43.844Z,5.00
2023-01-15T10:11:49.382Z,4.90
2023-01-15T10:14:29.911Z,5.00
2023-01-15T10:16:58.173Z,5.00
2023-01-15T10:19:37.110Z,5.00
2023-01-15T10:22:23.072Z,5.00
2023-01-15T10:24:56.974Z,5.00
2023-01-15T10:27:28.159Z,5.00
2023-01-15T10:30:02.904Z,4.90
2023-01-15T10:33:00.740Z,4.80
2023-01-15T10:35:39.699Z,4.80
2023-01-15T10:38:17.281Z,4.70
2023-01-15T10:41:04.760Z,4.60
2023-01-15T10:43:45.643Z,4.60
2023-01-15T10:46:17.363Z,4.60
2023-01-15T10:48:48.529Z,4.50
2023-01-15T10:51:20.458Z,4.50
2023-01-15T10:53:52.828Z,4.50
2023-01-15T10:56:32.211Z,4.50
2023-01-15T10:59:14.024Z,4.50
2023-01-15T11:01:42.422Z,4.50
2023-01-15T11:04:13.506Z,4.60
2023-01-15T11:06:42.990Z,4.60
2023-01-15T11:09:21.923Z,4.60
2023-01-15T11:12:06.307Z,4.60
2023-01-15T11:14:57.294Z,4.70
2023-01-15T11:17:45.228Z,4.70
2023-01-15T11:20:29.037Z,4.70
2023-01-15T11:22:58.067Z,4.80
2023-01-15T11:25:30.354Z,4.70
2023-01-15T11:28:00.927Z,4.70
2023-01-15T11:30:32.064Z,4.80
2023-01-15T11:33:04.047Z,4.80
2023-01-15T11:35:33.364Z,4.80
2023-01-15T11:38:06.696Z,4.80
2023-01-15T11:40:36.330Z,4.70
2023-01-15T11:43:22.070Z,4.80
2023-01-15T11:46:09.617Z,4.80
2023-01-15T11:49:03.723Z,4.80
2023-01-15T11:51:34.434Z,4.80
2023-01-15T11:54:06.088Z,4.80
2023-01-15T11:56:37.179Z,4.80
2023-01-15T11:59:12.080Z,4.80
2023-01-15T12:01:50.268Z,4.80
2023-01-15T12:04:30.862Z,4.80
2023-01-15T12:07:00.203Z,4.80
2023-01-15T12:09:39.542Z,4.90
2023-01-15T12:12:17.294Z,4.90
2023-01-15T12:15:17.051Z,5.00
2023-01-15T12:18:24.802Z,5.10
2023-01-15T12:21:05.089Z,5.20
2023-01-15T12:23:55.445Z,5.20
2023-01-15T12:26:27.701Z,5.20
2023-01-15T12:29:10.961Z,5.30
2023-01-15T12:31:42.995Z,5.20
2023-01-15T12:34:21.975Z,5.30
2023-01-15T12:36:54.066Z,5.20
2023-01-15T12:39:26.529Z,5.30
2023-01-15T12:42:16.573Z,5.30
2023-01-15T12:45:04.115Z,5.20
2023-01-15T12:47:38.176Z,5.20
2023-01-15T12:50:26.451Z,5.10
2023-01-15T12:53:00.716Z,5.10
2023-01-15T12:55:32.329Z,5.10
2023-01-15T12:58:02.833Z,5.10
2023-01-15T13:00:38.403Z,5.10
2023-01-15T13:03:20.968Z,5.10
2023-01-15T13:05:52.874Z,5.00
2023-01-15T13:08:27.150Z,5.00
2023-01-15T13:10:55.301Z,5.00
2023-01-15T13:13:25.336Z,5.00
2023-01-15T13:16:04.132Z,4.90
2023-01-15T13:18:41.054Z,4.80
2023-01-15T13:21:13.946Z,4.70
2023-01-15T13:23:58.268Z,4.70
2023-01-15T13:26:57.217Z,4.60
2023-01-15T13:29:39.805Z,4.50
2023-01-15T13:32:14.940Z,4.40
2023-01-15T13:34:48.182Z,4.40
2023-01-15T13:37:22.910Z,4.40
2023-01-15T13:39:53.000Z,4.30
2023-01-15T13:42:34.445Z,4.40
2023-01-15T13:45:08.442Z,4.40
2023-01-15T13:47:42.965Z,4.40
2023-01-15T13:50:17.047Z,4.40
2023-01-15T13:52:46.715Z,4.40
2023-01-15T13:55:31.935Z,4.40
2023-01-15T13:58:00.074Z,4.30
2023-01-15T14:00:32.185Z,4.20
2023-01-15T14:03:03.653Z,4.20
2023-01-15T14:05:34.315Z,4.20
2023-01-15T14:08:04.118Z,4.10
2023-01-15T14:10:39.438Z,4.10
2023-01-15T14:13:33.560Z,4.10
2023-01-15T14:16:10.788Z,4.10
2023-01-15T14:19:07.882Z,4.00
2023-01-15T14:21:47.182Z,4.00
2023-01-15T14:24:47.476Z,4.00
2023-01-15T14:27:23.223Z,3.90
2023-01-15T14:30:14.634Z,3.90
2023-01-15T14:32:54.141Z,3.80
2023-01-15T14:35:25.983Z,3.80
2023-01-15T14:37:57.842Z,3.70
2023-01-15T14:40:30.914Z,3.70
2023-01-15T14:43:02.702Z,3.70
2023-01-15T14:45:33.390Z,3.70
2023-01-15T14:48:03.741Z,3.70
2023-01-15T14:50:38.594Z,3.60
2023-01-15T14:53:20.240Z,3.50
2023-01-15T14:55:50.772Z,3.40
2023-01-15T14:58:38.413Z,3.40
2023-01-15T15:01:16.862Z,3.40
2023-01-15T15:03:52.856Z,3.40
2023-01-15T15:06:22.946Z,3.40
2023-01-15T15:08:52.336Z,3.30
2023-01-15T15:11:43.567Z,3.30
2023-01-15T15:14:13.962Z,3.20
2023-01-15T15:16:48.211Z,3.20
2023-01-15T15:19:24.856Z,3.20
2023-01-15T15:21:57.200Z,3.10
2023-01-15T15:24:29.822Z,3.10
2023-01-15T15:26:57.937Z,3.00
2023-01-15T15:29:26.007Z,3.00
2023-01-15T15:31:57.262Z,2.90
2023-01-15T15:34:29.838Z,2.80
2023-01-15T15:37:02.147Z,2.80
2023-01-15T15:39:42.282Z,2.80
2023-01-15T15:42:36.697Z,2.90
2023-01-15T15:45:35.383Z,2.80
2023-01-15T15:48:30.836Z,2.80
2023-01-15T15:50:59.410Z,2.80
2023-01-15T15:53:28.785Z,2.80
2023-01-15T15:55:59.012Z,2.90
2023-01-15T15:58:32.092Z,2.80
2023-01-15T16:01:00.384Z,2.90
2023-01-15T16:03:32.978Z,2.80
2023-01-15T16:06:03.065Z,2.80
2023-01-15T16:08:33.809Z,2.80
2023-01-15T16:11:03.856Z,2.80
2023-01-15T16:13:35.321Z,2.80
2023-01-15T16:16:04.998Z,2.80
2023-01-15T16:18:40.928Z,2.80
2023-01-15T16:21:18.057Z,2.80
2023-01-15T16:24:27.866Z,2.80
2023-01-15T16:27:35.010Z,2.70
2023-01-15T16:30:38.306Z,2.80
2023-01-15T16:33:52.741Z,2.80
2023-01-15T16:41:11.623Z,2.80
2023-01-15T16:45:12.306Z,2.80
2023-01-15T16:49:17.473Z,2.80
2023-01-15T16:55:05.342Z,2.90
2023-01-15T17:02:06.399Z,2.90
2023-01-15T17:04:37.059Z,2.80
2023-01-15T17:08:05.612Z,2.80
2023-01-15T17:15:31.296Z,2.80
2023-01-15T17:18:29.906Z,2.70
2023-01-15T17:20:59.947Z,2.70
2023-01-15T17:36:57.199Z,2.70
2023-01-15T17:37:56.363Z,2.60
2023-01-15T18:00:39.520Z,2.70
2023-01-15T18:08:32.666Z,2.90
2023-01-15T18:12:02.863Z,2.80
2023-01-15T18:15:40.008Z,2.80
2023-01-15T18:18:31.914Z,2.90
2023-01-15T18:21:12.091Z,2.90
2023-01-15T18:24:58.950Z,2.90
2023-01-15T18:27:54.294Z,3.00
2023-01-15T18:44:39.192Z,2.80
2023-01-15T18:55:01.160Z,2.80
2023-01-15T19:22:58.336Z,2.90
2023-01-15T19:25:27.689Z,2.90
2023-01-15T19:27:56.284Z,3.00
2023-01-15T19:30:24.459Z,3.00
2023-01-15T19:32:52.590Z,3.00
2023-01-15T19:35:20.797Z,3.00
2023-01-15T19:37:50.413Z,3.00
2023-01-15T19:40:21.165Z,2.90
2023-01-15T19:43:07.736Z,2.90
2023-01-15T19:45:58.971Z,2.90
2023-01-15T19:48:44.909Z,2.90
2023-01-15T19:51:13.719Z,2.90
2023-01-15T19:53:42.994Z,2.90
2023-01-15T19:56:11.137Z,2.90
2023-01-15T19:58:39.367Z,3.00
2023-01-15T20:01:15.467Z,3.00
2023-01-15T20:03:43.679Z,3.00
2023-01-15T20:06:11.940Z,3.10
2023-01-15T20:08:39.976Z,3.00
2023-01-15T20:11:10.727Z,3.10
2023-01-15T20:13:53.282Z,3.10
2023-01-15T20:16:25.429Z,3.10
2023-01-15T20:18:55.595Z,3.10
2023-01-15T20:21:25.130Z,3.10
2023-01-15T20:23:53.228Z,3.10
2023-01-15T20:26:24.371Z,3.10
2023-01-15T20:28:52.520Z,3.20
2023-01-15T20:31:21.318Z,3.10
2023-01-15T20:33:50.229Z,3.10
2023-01-15T20:36:18.420Z,3.20
2023-01-15T20:38:46.515Z,3.20
2023-01-15T20:41:32.097Z,3.20
2023-01-15T20:44:18.941Z,3.10
2023-01-15T20:46:48.347Z,3.10
2023-01-15T20:49:28.970Z,3.00
2023-01-15T20:51:58.176Z,2.90
2023-01-15T20:54:26.980Z,2.90
2023-01-15T20:56:55.048Z,2.90
2023-01-15T20:59:24.474Z,2.90
2023-01-15T21:01:54.887Z,2.90
2023-01-15T21:04:23.303Z,2.90
2023-01-15T21:06:51.513Z,2.90
2023-01-15T21:09:19.712Z,2.80
2023-01-15T21:11:47.838Z,2.80
2023-01-15T21:14:16.013Z,2.80
2023-01-15T21:16:45.648Z,2.80
2023-01-15T21:19:13.734Z,2.80
2023-01-15T21:21:41.876Z,2.90
2023-01-15T21:24:10.294Z,2.90
2023-01-15T21:26:38.642Z,2.80
2023-01-15T21:29:07.117Z,2.80
2023-01-15T21:31:35.227Z,2.80
2023-01-15T21:34:05.207Z,2.90
2023-01-15T21:36:33.389Z,2.90
2023-01-15T21:39:02.322Z,2.90
2023-01-15T21:41:44.521Z,2.90
2023-01-15T21:44:34.011Z,2.90
2023-01-15T21:47:04.297Z,3.00
2023-01-15T21:49:34.218Z,3.00
2023-01-15T21:52:03.523Z,3.00
2023-01-15T21:54:32.934Z,3.00
2023-01-15T21:57:01.626Z,3.00
2023-01-15T21:59:29.803Z,3.00
2023-01-15T22:01:59.380Z,3.00
2023-01-15T22:04:29.266Z,3.00
2023-01-15T22:06:58.719Z,3.00
2023-01-15T22:09:26.957Z,3.00
2023-01-15T22:11:55.302Z,3.00
2023-01-15T22:14:27.065Z,3.10
2023-01-15T22:16:56.351Z,3.10
2023-01-15T22:19:26.326Z,3.00
2023-01-15T22:21:56.687Z,3.00
2023-01-15T22:24:28.366Z,3.00
2023-01-15T22:26:57.330Z,3.10
2023-01-15T22:29:27.026Z,3.10
2023-01-15T22:31:56.310Z,3.10
2023-01-15T22:34:26.060Z,3.20
2023-01-15T22:36:55.255Z,3.20
2023-01-15T22:39:24.971Z,3.20
2023-01-15T22:42:12.401Z,3.20
2023-01-15T22:44:40.534Z,3.20
2023-01-15T22:47:08.573Z,3.20
2023-01-15T22:49:36.666Z,3.20
2023-01-15T22:52:05.530Z,3.20
2023-01-15T22:54:33.675Z,3.20
2023-01-15T22:57:04.246Z,3.20
2023-01-15T22:59:32.555Z,3.30
2023-01-15T23:02:00.810Z,3.30
2023-01-15T23:04:29.287Z,3.30
2023-01-15T23:06:57.657Z,3.30
2023-01-15T23:09:25.798Z,3.30
2023-01-15T23:11:54.056Z,3.30
2023-01-15T23:14:23.854Z,3.30
2023-01-15T23:16:52.055Z,3.30
2023-01-15T23:19:20.771Z,3.30
2023-01-15T23:21:49.051Z,3.30
2023-01-15T23:24:17.954Z,3.30
2023-01-15T23:26:46.204Z,3.20
2023-01-15T23:29:16.595Z,3.20
2023-01-15T23:31:48.797Z,3.20
2023-01-15T23:34:17.024Z,3.10
2023-01-15T23:36:45.269Z,3.10
2023-01-15T23:39:13.421Z,3.00
2023-01-15T23:41:58.871Z,3.00
2023-01-15T23:44:44.232Z,3.00
2023-01-15T23:47:13.676Z,2.90
2023-01-15T23:49:41.795Z,2.90
2023-01-15T23:52:10.011Z,2.90
2023-01-15T23:54:38.390Z,2.90
2023-01-15T23:57:08.088Z,2.90
2023-01-15T23:59:36.326Z,2.90
